sensor_id;sensor_type;location;lat;lon;timestamp;P1;durP1;ratioP1;P2;durP2;ratioP2
7001;SDS011;3541;53.230;10.518;2023-07-09T00:00:53;5.65;;;2.50;;
7001;SDS011;3541;53.230;10.518;2023-07-09T00:03:19;4.40;;;2.45;;
7001;SDS011;3541;53.230;10.518;2023-07-09T00:05:47;2.85;;;2.55;;
7001;SDS011;3541;53.230;10.518;2023-07-09T00:08:19;4.05;;;2.92;;
7001;SDS011;3541;53.230;10.518;2023-07-09T00:10:52;4.60;;;3.05;;
7001;SDS011;3541;53.230;10.518;2023-07-09T00:13:20;3.53;;;2.50;;
7001;SDS011;3541;53.230;10.518;2023-07-09T00:15:47;4.22;;;2.88;;
7001;SDS011;3541;53.230;10.518;2023-07-09T00:18:15;3.00;;;2.70;;
7001;SDS011;3541;53.230;10.518;2023-07-09T00:20:42;3.20;;;2.90;;
7001;SDS011;3541;53.230;10.518;2023-07-09T00:23:09;4.57;;;2.97;;
7001;SDS011;3541;53.230;10.518;2023-07-09T00:25:38;6.43;;;3.08;;
7001;SDS011;3541;53.230;10.518;2023-07-09T00:28:11;4.55;;;2.60;;
7001;SDS011;3541;53.230;10.518;2023-07-09T00:30:38;3.53;;;2.50;;
7001;SDS011;3541;53.230;10.518;2023-07-09T00:33:06;4.28;;;3.08;;
7001;SDS011;3541;53.230;10.518;2023-07-09T00:35:37;4.95;;;2.67;;
7001;SDS011;3541;53.230;10.518;2023-07-09T00:38:07;5.32;;;2.83;;
7001;SDS011;3541;53.230;10.518;2023-07-09T00:40:38;3.72;;;2.80;;
7001;SDS011;3541;53.230;10.518;2023-07-09T00:43:12;4.18;;;2.88;;
7001;SDS011;3541;53.230;10.518;2023-07-09T00:45:41;4.50;;;3.00;;
7001;SDS011;3541;53.230;10.518;2023-07-09T00:48:09;5.07;;;2.80;;
7001;SDS011;3541;53.230;10.518;2023-07-09T00:50:42;5.40;;;3.20;;
7001;SDS011;3541;53.230;10.518;2023-07-09T00:53:15;6.68;;;3.35;;
7001;SDS011;3541;53.230;10.518;2023-07-09T00:55:46;5.88;;;3.00;;
7001;SDS011;3541;53.230;10.518;2023-07-09T00:58:16;3.50;;;3.08;;
7001;SDS011;3541;53.230;10.518;2023-07-09T01:00:45;3.38;;;2.30;;
7001;SDS011;3541;53.230;10.518;2023-07-09T01:03:21;3.13;;;2.83;;
7001;SDS011;3541;53.230;10.518;2023-07-09T01:05:53;3.05;;;2.78;;
7001;SDS011;3541;53.230;10.518;2023-07-09T01:08:20;4.85;;;2.83;;
7001;SDS011;3541;53.230;10.518;2023-07-09T01:10:47;6.40;;;3.03;;
7001;SDS011;3541;53.230;10.518;2023-07-09T01:13:14;3.05;;;2.55;;
7001;SDS011;3541;53.230;10.518;2023-07-09T01:15:43;3.97;;;2.75;;
7001;SDS011;3541;53.230;10.518;2023-07-09T01:18:11;3.75;;;2.90;;
7001;SDS011;3541;53.230;10.518;2023-07-09T01:20:39;2.90;;;2.63;;
7001;SDS011;3541;53.230;10.518;2023-07-09T01:23:08;3.70;;;2.80;;
7001;SDS011;3541;53.230;10.518;2023-07-09T01:25:43;3.20;;;2.47;;
7001;SDS011;3541;53.230;10.518;2023-07-09T01:28:12;6.63;;;3.00;;
7001;SDS011;3541;53.230;10.518;2023-07-09T01:30:41;4.43;;;3.10;;
7001;SDS011;3541;53.230;10.518;2023-07-09T01:33:08;4.20;;;2.97;;
7001;SDS011;3541;53.230;10.518;2023-07-09T01:35:36;3.20;;;2.90;;
7001;SDS011;3541;53.230;10.518;2023-07-09T01:38:05;5.55;;;3.50;;
7001;SDS011;3541;53.230;10.518;2023-07-09T01:40:34;7.25;;;3.05;;
7001;SDS011;3541;53.230;10.518;2023-07-09T01:43:02;4.20;;;3.03;;
7001;SDS011;3541;53.230;10.518;2023-07-09T01:45:31;3.72;;;3.00;;
7001;SDS011;3541;53.230;10.518;2023-07-09T01:47:59;5.93;;;2.70;;
7001;SDS011;3541;53.230;10.518;2023-07-09T01:50:27;3.80;;;3.20;;
7001;SDS011;3541;53.230;10.518;2023-07-09T01:52:54;6.50;;;3.00;;
7001;SDS011;3541;53.230;10.518;2023-07-09T01:55:22;7.05;;;3.08;;
7001;SDS011;3541;53.230;10.518;2023-07-09T01:57:50;4.80;;;2.72;;
7001;SDS011;3541;53.230;10.518;2023-07-09T02:00:17;5.65;;;2.95;;
7001;SDS011;3541;53.230;10.518;2023-07-09T02:02:45;3.40;;;3.03;;
7001;SDS011;3541;53.230;10.518;2023-07-09T02:05:12;3.80;;;2.78;;
7001;SDS011;3541;53.230;10.518;2023-07-09T02:07:41;3.45;;;3.00;;
7001;SDS011;3541;53.230;10.518;2023-07-09T02:10:08;3.40;;;2.83;;
7001;SDS011;3541;53.230;10.518;2023-07-09T02:12:36;3.05;;;2.75;;
7001;SDS011;3541;53.230;10.518;2023-07-09T02:15:04;3.13;;;2.83;;
7001;SDS011;3541;53.230;10.518;2023-07-09T02:17:32;4.95;;;3.03;;
7001;SDS011;3541;53.230;10.518;2023-07-09T02:19:59;4.88;;;2.92;;
7001;SDS011;3541;53.230;10.518;2023-07-09T02:22:25;5.22;;;3.13;;
7001;SDS011;3541;53.230;10.518;2023-07-09T02:24:52;3.47;;;2.60;;
7001;SDS011;3541;53.230;10.518;2023-07-09T02:27:19;3.35;;;2.47;;
7001;SDS011;3541;53.230;10.518;2023-07-09T02:29:46;3.15;;;2.85;;
7001;SDS011;3541;53.230;10.518;2023-07-09T02:32:16;4.60;;;3.00;;
7001;SDS011;3541;53.230;10.518;2023-07-09T02:34:44;5.00;;;3.08;;
7001;SDS011;3541;53.230;10.518;2023-07-09T02:37:14;8.10;;;3.00;;
7001;SDS011;3541;53.230;10.518;2023-07-09T02:39:42;3.63;;;2.75;;
7001;SDS011;3541;53.230;10.518;2023-07-09T02:42:08;3.60;;;2.80;;
7001;SDS011;3541;53.230;10.518;2023-07-09T02:44:36;3.63;;;2.85;;
7001;SDS011;3541;53.230;10.518;2023-07-09T02:47:03;7.15;;;3.20;;
7001;SDS011;3541;53.230;10.518;2023-07-09T02:49:31;3.03;;;2.75;;
7001;SDS011;3541;53.230;10.518;2023-07-09T02:51:58;3.15;;;2.58;;
7001;SDS011;3541;53.230;10.518;2023-07-09T02:54:24;5.22;;;3.22;;
7001;SDS011;3541;53.230;10.518;2023-07-09T02:56:51;3.83;;;2.70;;
7001;SDS011;3541;53.230;10.518;2023-07-09T02:59:18;3.30;;;2.72;;
7001;SDS011;3541;53.230;10.518;2023-07-09T03:01:45;4.35;;;3.08;;
7001;SDS011;3541;53.230;10.518;2023-07-09T03:04:12;4.63;;;2.95;;
7001;SDS011;3541;53.230;10.518;2023-07-09T03:06:40;3.50;;;2.50;;
7001;SDS011;3541;53.230;10.518;2023-07-09T03:09:07;3.38;;;2.90;;
7001;SDS011;3541;53.230;10.518;2023-07-09T03:11:34;4.28;;;2.95;;
7001;SDS011;3541;53.230;10.518;2023-07-09T03:14:01;4.85;;;2.88;;
7001;SDS011;3541;53.230;10.518;2023-07-09T03:16:29;3.72;;;2.60;;
7001;SDS011;3541;53.230;10.518;2023-07-09T03:18:58;4.72;;;3.10;;
7001;SDS011;3541;53.230;10.518;2023-07-09T03:21:27;7.10;;;2.80;;
7001;SDS011;3541;53.230;10.518;2023-07-09T03:23:55;3.22;;;2.55;;
7001;SDS011;3541;53.230;10.518;2023-07-09T03:26:22;3.72;;;2.95;;
7001;SDS011;3541;53.230;10.518;2023-07-09T03:28:50;4.55;;;3.00;;
7001;SDS011;3541;53.230;10.518;2023-07-09T03:31:17;3.55;;;2.78;;
7001;SDS011;3541;53.230;10.518;2023-07-09T03:33:45;4.13;;;2.97;;
7001;SDS011;3541;53.230;10.518;2023-07-09T03:36:13;4.07;;;3.03;;
7001;SDS011;3541;53.230;10.518;2023-07-09T03:38:40;3.97;;;2.70;;
7001;SDS011;3541;53.230;10.518;2023-07-09T03:41:07;3.00;;;2.70;;
7001;SDS011;3541;53.230;10.518;2023-07-09T03:43:34;4.25;;;2.92;;
7001;SDS011;3541;53.230;10.518;2023-07-09T03:46:01;5.00;;;3.30;;
7001;SDS011;3541;53.230;10.518;2023-07-09T03:48:27;4.25;;;2.90;;
7001;SDS011;3541;53.230;10.518;2023-07-09T03:50:54;3.72;;;2.63;;
7001;SDS011;3541;53.230;10.518;2023-07-09T03:53:20;3.22;;;2.88;;
7001;SDS011;3541;53.230;10.518;2023-07-09T03:55:51;3.22;;;2.92;;
7001;SDS011;3541;53.230;10.518;2023-07-09T03:58:20;3.30;;;2.78;;
7001;SDS011;3541;53.230;10.518;2023-07-09T04:00:47;4.05;;;3.03;;
7001;SDS011;3541;53.230;10.518;2023-07-09T04:03:14;3.22;;;2.70;;
7001;SDS011;3541;53.230;10.518;2023-07-09T04:05:41;3.58;;;3.00;;
7001;SDS011;3541;53.230;10.518;2023-07-09T04:08:07;5.20;;;2.90;;
7001;SDS011;3541;53.230;10.518;2023-07-09T04:10:34;4.70;;;3.00;;
7001;SDS011;3541;53.230;10.518;2023-07-09T04:13:00;3.38;;;2.97;;
7001;SDS011;3541;53.230;10.518;2023-07-09T04:15:28;3.30;;;3.00;;
7001;SDS011;3541;53.230;10.518;2023-07-09T04:17:55;3.50;;;2.72;;
7001;SDS011;3541;53.230;10.518;2023-07-09T04:20:22;3.40;;;2.72;;
7001;SDS011;3541;53.230;10.518;2023-07-09T04:22:48;3.22;;;2.67;;
7001;SDS011;3541;53.230;10.518;2023-07-09T04:25:15;3.70;;;2.85;;
7001;SDS011;3541;53.230;10.518;2023-07-09T04:27:42;4.68;;;2.70;;
7001;SDS011;3541;53.230;10.518;2023-07-09T04:30:09;3.55;;;2.97;;
7001;SDS011;3541;53.230;10.518;2023-07-09T04:32:38;3.95;;;3.10;;
7001;SDS011;3541;53.230;10.518;2023-07-09T04:35:08;3.20;;;2.90;;
7001;SDS011;3541;53.230;10.518;2023-07-09T04:37:36;4.05;;;2.80;;
7001;SDS011;3541;53.230;10.518;2023-07-09T04:40:03;3.80;;;2.70;;
7001;SDS011;3541;53.230;10.518;2023-07-09T04:42:31;3.08;;;2.65;;
7001;SDS011;3541;53.230;10.518;2023-07-09T04:44:58;2.97;;;2.53;;
7001;SDS011;3541;53.230;10.518;2023-07-09T04:47:25;3.90;;;2.72;;
7001;SDS011;3541;53.230;10.518;2023-07-09T04:49:53;4.55;;;2.80;;
7001;SDS011;3541;53.230;10.518;2023-07-09T04:52:19;5.35;;;2.70;;
7001;SDS011;3541;53.230;10.518;2023-07-09T04:54:47;4.78;;;2.90;;
7001;SDS011;3541;53.230;10.518;2023-07-09T04:57:15;6.20;;;3.05;;
7001;SDS011;3541;53.230;10.518;2023-07-09T04:59:42;3.20;;;2.90;;
7001;SDS011;3541;53.230;10.518;2023-07-09T05:02:09;3.85;;;2.97;;
7001;SDS011;3541;53.230;10.518;2023-07-09T05:04:35;3.53;;;3.03;;
7001;SDS011;3541;53.230;10.518;2023-07-09T05:07:03;3.95;;;2.85;;
7001;SDS011;3541;53.230;10.518;2023-07-09T05:09:30;6.95;;;3.13;;
7001;SDS011;3541;53.230;10.518;2023-07-09T05:11:57;4.32;;;2.80;;
7001;SDS011;3541;53.230;10.518;2023-07-09T05:14:26;3.20;;;2.80;;
7001;SDS011;3541;53.230;10.518;2023-07-09T05:16:53;3.22;;;2.92;;
7001;SDS011;3541;53.230;10.518;2023-07-09T05:19:19;4.28;;;3.10;;
7001;SDS011;3541;53.230;10.518;2023-07-09T05:21:46;3.15;;;2.83;;
7001;SDS011;3541;53.230;10.518;2023-07-09T05:24:14;3.67;;;3.08;;
7001;SDS011;3541;53.230;10.518;2023-07-09T05:26:40;3.78;;;2.67;;
7001;SDS011;3541;53.230;10.518;2023-07-09T05:29:07;4.20;;;2.97;;
7001;SDS011;3541;53.230;10.518;2023-07-09T05:31:33;3.42;;;2.90;;
7001;SDS011;3541;53.230;10.518;2023-07-09T05:34:01;5.70;;;2.78;;
7001;SDS011;3541;53.230;10.518;2023-07-09T05:36:28;3.30;;;2.90;;
7001;SDS011;3541;53.230;10.518;2023-07-09T05:38:55;5.72;;;3.60;;
7001;SDS011;3541;53.230;10.518;2023-07-09T05:41:24;4.60;;;3.17;;
7001;SDS011;3541;53.230;10.518;2023-07-09T05:43:51;4.40;;;3.15;;
7001;SDS011;3541;53.230;10.518;2023-07-09T05:46:18;4.65;;;2.70;;
7001;SDS011;3541;53.230;10.518;2023-07-09T05:48:47;3.05;;;2.75;;
7001;SDS011;3541;53.230;10.518;2023-07-09T05:51:14;3.30;;;2.90;;
7001;SDS011;3541;53.230;10.518;2023-07-09T05:53:41;3.00;;;2.67;;
7001;SDS011;3541;53.230;10.518;2023-07-09T05:56:08;6.43;;;3.08;;
7001;SDS011;3541;53.230;10.518;2023-07-09T05:58:36;4.22;;;3.30;;
7001;SDS011;3541;53.230;10.518;2023-07-09T06:01:03;4.47;;;2.80;;
7001;SDS011;3541;53.230;10.518;2023-07-09T06:03:30;3.88;;;2.97;;
7001;SDS011;3541;53.230;10.518;2023-07-09T06:05:58;4.20;;;3.28;;
7001;SDS011;3541;53.230;10.518;2023-07-09T06:08:25;4.90;;;3.10;;
7001;SDS011;3541;53.230;10.518;2023-07-09T06:10:53;6.05;;;3.38;;
7001;SDS011;3541;53.230;10.518;2023-07-09T06:13:21;3.75;;;2.90;;
7001;SDS011;3541;53.230;10.518;2023-07-09T06:15:50;3.30;;;2.90;;
7001;SDS011;3541;53.230;10.518;2023-07-09T06:18:17;4.32;;;3.17;;
7001;SDS011;3541;53.230;10.518;2023-07-09T06:20:48;7.50;;;2.92;;
7001;SDS011;3541;53.230;10.518;2023-07-09T06:23:15;5.30;;;3.28;;
7001;SDS011;3541;53.230;10.518;2023-07-09T06:25:42;3.70;;;3.30;;
7001;SDS011;3541;53.230;10.518;2023-07-09T06:28:12;4.22;;;3.10;;
7001;SDS011;3541;53.230;10.518;2023-07-09T06:30:39;4.68;;;3.25;;
7001;SDS011;3541;53.230;10.518;2023-07-09T06:33:07;3.33;;;3.03;;
7001;SDS011;3541;53.230;10.518;2023-07-09T06:35:34;5.18;;;3.28;;
7001;SDS011;3541;53.230;10.518;2023-07-09T06:38:01;4.10;;;3.00;;
7001;SDS011;3541;53.230;10.518;2023-07-09T06:40:27;4.10;;;2.88;;
7001;SDS011;3541;53.230;10.518;2023-07-09T06:42:54;4.68;;;3.40;;
7001;SDS011;3541;53.230;10.518;2023-07-09T06:45:21;3.50;;;3.20;;
7001;SDS011;3541;53.230;10.518;2023-07-09T06:47:47;4.53;;;3.58;;
7001;SDS011;3541;53.230;10.518;2023-07-09T06:50:15;4.03;;;3.08;;
7001;SDS011;3541;53.230;10.518;2023-07-09T06:52:42;4.50;;;3.20;;
7001;SDS011;3541;53.230;10.518;2023-07-09T06:55:09;4.45;;;3.42;;
7001;SDS011;3541;53.230;10.518;2023-07-09T06:57:36;3.10;;;2.80;;
7001;SDS011;3541;53.230;10.518;2023-07-09T07:00:03;4.43;;;3.45;;
7001;SDS011;3541;53.230;10.518;2023-07-09T07:02:31;3.80;;;3.38;;
7001;SDS011;3541;53.230;10.518;2023-07-09T07:04:58;3.78;;;3.20;;
7001;SDS011;3541;53.230;10.518;2023-07-09T07:07:26;4.65;;;3.70;;
7001;SDS011;3541;53.230;10.518;2023-07-09T07:09:53;6.75;;;3.20;;
7001;SDS011;3541;53.230;10.518;2023-07-09T07:12:22;3.90;;;3.33;;
7001;SDS011;3541;53.230;10.518;2023-07-09T07:14:51;5.90;;;3.47;;
7001;SDS011;3541;53.230;10.518;2023-07-09T07:17:17;3.30;;;3.00;;
7001;SDS011;3541;53.230;10.518;2023-07-09T07:19:44;4.47;;;3.67;;
7001;SDS011;3541;53.230;10.518;2023-07-09T07:22:11;3.88;;;3.47;;
7001;SDS011;3541;53.230;10.518;2023-07-09T07:24:39;3.55;;;3.25;;
7001;SDS011;3541;53.230;10.518;2023-07-09T07:27:05;5.20;;;3.67;;
7001;SDS011;3541;53.230;10.518;2023-07-09T07:29:33;3.70;;;3.28;;
7001;SDS011;3541;53.230;10.518;2023-07-09T07:32:00;4.88;;;3.70;;
7001;SDS011;3541;53.230;10.518;2023-07-09T07:34:26;4.50;;;3.45;;
7001;SDS011;3541;53.230;10.518;2023-07-09T07:36:53;5.95;;;3.45;;
7001;SDS011;3541;53.230;10.518;2023-07-09T07:39:19;4.00;;;3.60;;
7001;SDS011;3541;53.230;10.518;2023-07-09T07:41:47;3.60;;;3.30;;
7001;SDS011;3541;53.230;10.518;2023-07-09T07:44:15;4.32;;;3.88;;
7001;SDS011;3541;53.230;10.518;2023-07-09T07:46:42;4.20;;;3.40;;
7001;SDS011;3541;53.230;10.518;2023-07-09T07:49:09;4.05;;;3.60;;
7001;SDS011;3541;53.230;10.518;2023-07-09T07:51:36;4.43;;;3.50;;
7001;SDS011;3541;53.230;10.518;2023-07-09T07:54:03;4.43;;;3.60;;
7001;SDS011;3541;53.230;10.518;2023-07-09T07:56:30;4.90;;;3.85;;
7001;SDS011;3541;53.230;10.518;2023-07-09T07:58:58;4.15;;;3.75;;
7001;SDS011;3541;53.230;10.518;2023-07-09T08:01:25;4.05;;;3.65;;
7001;SDS011;3541;53.230;10.518;2023-07-09T08:03:51;4.07;;;3.30;;
7001;SDS011;3541;53.230;10.518;2023-07-09T08:06:18;4.68;;;3.78;;
7001;SDS011;3541;53.230;10.518;2023-07-09T08:08:44;3.83;;;3.45;;
7001;SDS011;3541;53.230;10.518;2023-07-09T08:11:11;3.85;;;3.45;;
7001;SDS011;3541;53.230;10.518;2023-07-09T08:13:38;4.30;;;3.65;;
7001;SDS011;3541;53.230;10.518;2023-07-09T08:16:06;3.88;;;3.50;;
7001;SDS011;3541;53.230;10.518;2023-07-09T08:18:36;4.22;;;3.70;;
7001;SDS011;3541;53.230;10.518;2023-07-09T08:21:03;4.43;;;3.80;;
7001;SDS011;3541;53.230;10.518;2023-07-09T08:23:30;4.35;;;3.70;;
7001;SDS011;3541;53.230;10.518;2023-07-09T08:25:57;5.32;;;3.60;;
7001;SDS011;3541;53.230;10.518;2023-07-09T08:28:27;5.80;;;4.07;;
7001;SDS011;3541;53.230;10.518;2023-07-09T08:30:53;5.55;;;3.85;;
7001;SDS011;3541;53.230;10.518;2023-07-09T08:33:22;6.93;;;3.78;;
7001;SDS011;3541;53.230;10.518;2023-07-09T08:35:50;4.10;;;3.70;;
7001;SDS011;3541;53.230;10.518;2023-07-09T08:38:18;6.35;;;3.83;;
7001;SDS011;3541;53.230;10.518;2023-07-09T08:40:49;3.65;;;3.33;;
7001;SDS011;3541;53.230;10.518;2023-07-09T08:43:21;6.75;;;4.00;;
7001;SDS011;3541;53.230;10.518;2023-07-09T08:46:07;5.25;;;4.03;;
7001;SDS011;3541;53.230;10.518;2023-07-09T08:48:43;4.68;;;3.80;;
7001;SDS011;3541;53.230;10.518;2023-07-09T08:51:13;4.40;;;4.00;;
7001;SDS011;3541;53.230;10.518;2023-07-09T08:53:45;6.82;;;3.80;;
7001;SDS011;3541;53.230;10.518;2023-07-09T08:56:15;5.32;;;4.13;;
7001;SDS011;3541;53.230;10.518;2023-07-09T08:58:43;5.25;;;3.72;;
7001;SDS011;3541;53.230;10.518;2023-07-09T09:01:14;4.07;;;3.67;;
7001;SDS011;3541;53.230;10.518;2023-07-09T09:03:46;4.20;;;3.70;;
7001;SDS011;3541;53.230;10.518;2023-07-09T09:06:17;6.40;;;3.72;;
7001;SDS011;3541;53.230;10.518;2023-07-09T09:08:47;4.45;;;4.03;;
7001;SDS011;3541;53.230;10.518;2023-07-09T09:11:22;4.40;;;3.63;;
7001;SDS011;3541;53.230;10.518;2023-07-09T09:14:07;5.60;;;4.22;;
7001;SDS011;3541;53.230;10.518;2023-07-09T09:16:45;6.95;;;3.83;;
7001;SDS011;3541;53.230;10.518;2023-07-09T09:19:15;4.40;;;4.00;;
7001;SDS011;3541;53.230;10.518;2023-07-09T09:21:48;4.30;;;3.95;;
7001;SDS011;3541;53.230;10.518;2023-07-09T09:24:23;5.85;;;3.90;;
7001;SDS011;3541;53.230;10.518;2023-07-09T09:26:56;4.20;;;3.80;;
7001;SDS011;3541;53.230;10.518;2023-07-09T09:29:24;4.32;;;3.90;;
7001;SDS011;3541;53.230;10.518;2023-07-09T09:31:53;5.15;;;4.18;;
7001;SDS011;3541;53.230;10.518;2023-07-09T09:34:24;4.68;;;4.28;;
7001;SDS011;3541;53.230;10.518;2023-07-09T09:36:53;5.22;;;4.00;;
7001;SDS011;3541;53.230;10.518;2023-07-09T09:39:20;6.07;;;4.25;;
7001;SDS011;3541;53.230;10.518;2023-07-09T09:41:46;4.55;;;3.95;;
7001;SDS011;3541;53.230;10.518;2023-07-09T09:44:17;5.00;;;4.30;;
7001;SDS011;3541;53.230;10.518;2023-07-09T09:46:45;7.25;;;4.47;;
7001;SDS011;3541;53.230;10.518;2023-07-09T09:49:13;5.53;;;4.30;;
7001;SDS011;3541;53.230;10.518;2023-07-09T09:51:43;4.85;;;4.25;;
7001;SDS011;3541;53.230;10.518;2023-07-09T09:54:12;4.53;;;4.13;;
7001;SDS011;3541;53.230;10.518;2023-07-09T09:56:43;5.28;;;4.00;;
7001;SDS011;3541;53.230;10.518;2023-07-09T09:59:13;4.85;;;4.45;;
7001;SDS011;3541;53.230;10.518;2023-07-09T10:01:44;5.38;;;4.18;;
7001;SDS011;3541;53.230;10.518;2023-07-09T10:04:16;6.03;;;4.35;;
7001;SDS011;3541;53.230;10.518;2023-07-09T10:06:47;4.72;;;4.30;;
7001;SDS011;3541;53.230;10.518;2023-07-09T10:09:20;4.90;;;4.40;;
7001;SDS011;3541;53.230;10.518;2023-07-09T10:11:53;4.53;;;4.13;;
7001;SDS011;3541;53.230;10.518;2023-07-09T10:14:27;4.25;;;3.83;;
7001;SDS011;3541;53.230;10.518;2023-07-09T10:17:00;5.80;;;4.15;;
7001;SDS011;3541;53.230;10.518;2023-07-09T10:19:34;4.28;;;3.70;;
7001;SDS011;3541;53.230;10.518;2023-07-09T10:22:09;4.28;;;3.65;;
7001;SDS011;3541;53.230;10.518;2023-07-09T10:24:53;4.05;;;3.65;;
7001;SDS011;3541;53.230;10.518;2023-07-09T10:27:27;5.85;;;4.18;;
7001;SDS011;3541;53.230;10.518;2023-07-09T10:30:01;6.47;;;4.18;;
7001;SDS011;3541;53.230;10.518;2023-07-09T10:32:42;5.75;;;4.38;;
7001;SDS011;3541;53.230;10.518;2023-07-09T10:35:17;5.40;;;4.07;;
7001;SDS011;3541;53.230;10.518;2023-07-09T10:37:59;4.95;;;4.30;;
7001;SDS011;3541;53.230;10.518;2023-07-09T10:40:37;4.65;;;4.22;;
7001;SDS011;3541;53.230;10.518;2023-07-09T10:43:16;4.40;;;4.00;;
7001;SDS011;3541;53.230;10.518;2023-07-09T10:45:47;4.95;;;4.47;;
7001;SDS011;3541;53.230;10.518;2023-07-09T10:48:31;4.57;;;4.00;;
7001;SDS011;3541;53.230;10.518;2023-07-09T10:51:01;4.43;;;4.03;;
7001;SDS011;3541;53.230;10.518;2023-07-09T10:53:31;8.98;;;4.82;;
7001;SDS011;3541;53.230;10.518;2023-07-09T10:56:04;6.40;;;4.28;;
7001;SDS011;3541;53.230;10.518;2023-07-09T10:58:35;5.55;;;3.67;;
7001;SDS011;3541;53.230;10.518;2023-07-09T11:01:05;4.80;;;4.05;;
7001;SDS011;3541;53.230;10.518;2023-07-09T11:03:37;4.20;;;3.80;;
7001;SDS011;3541;53.230;10.518;2023-07-09T11:06:10;4.85;;;4.35;;
7001;SDS011;3541;53.230;10.518;2023-07-09T11:08:46;4.72;;;4.00;;
7001;SDS011;3541;53.230;10.518;2023-07-09T11:11:17;4.38;;;3.92;;
7001;SDS011;3541;53.230;10.518;2023-07-09T11:13:55;5.07;;;4.13;;
7001;SDS011;3541;53.230;10.518;2023-07-09T11:16:26;7.20;;;4.50;;
7001;SDS011;3541;53.230;10.518;2023-07-09T11:18:56;5.60;;;3.80;;
7001;SDS011;3541;53.230;10.518;2023-07-09T11:21:26;5.10;;;3.90;;
7001;SDS011;3541;53.230;10.518;2023-07-09T11:23:54;4.25;;;3.85;;
7001;SDS011;3541;53.230;10.518;2023-07-09T11:26:24;4.38;;;3.95;;
7001;SDS011;3541;53.230;10.518;2023-07-09T11:28:53;4.40;;;4.00;;
7001;SDS011;3541;53.230;10.518;2023-07-09T11:31:22;4.43;;;4.03;;
7001;SDS011;3541;53.230;10.518;2023-07-09T11:33:58;5.03;;;3.85;;
7001;SDS011;3541;53.230;10.518;2023-07-09T11:36:28;4.65;;;4.20;;
7001;SDS011;3541;53.230;10.518;2023-07-09T11:38:57;5.85;;;4.13;;
7001;SDS011;3541;53.230;10.518;2023-07-09T11:41:26;4.93;;;4.15;;
7001;SDS011;3541;53.230;10.518;2023-07-09T11:44:02;6.13;;;4.10;;
7001;SDS011;3541;53.230;10.518;2023-07-09T11:46:31;4.93;;;4.10;;
7001;SDS011;3541;53.230;10.518;2023-07-09T11:49:00;4.10;;;3.80;;
7001;SDS011;3541;53.230;10.518;2023-07-09T11:51:29;5.05;;;4.07;;
7001;SDS011;3541;53.230;10.518;2023-07-09T11:54:05;4.95;;;4.03;;
7001;SDS011;3541;53.230;10.518;2023-07-09T11:56:38;4.18;;;3.78;;
7001;SDS011;3541;53.230;10.518;2023-07-09T11:59:04;4.13;;;3.72;;
7001;SDS011;3541;53.230;10.518;2023-07-09T12:01:33;5.22;;;4.35;;
7001;SDS011;3541;53.230;10.518;2023-07-09T12:04:04;4.88;;;4.38;;
7001;SDS011;3541;53.230;10.518;2023-07-09T12:06:32;5.20;;;3.95;;
7001;SDS011;3541;53.230;10.518;2023-07-09T12:08:59;4.38;;;3.97;;
7001;SDS011;3541;53.230;10.518;2023-07-09T12:11:28;6.28;;;3.90;;
7001;SDS011;3541;53.230;10.518;2023-07-09T12:14:00;4.15;;;3.70;;
7001;SDS011;3541;53.230;10.518;2023-07-09T12:16:28;5.20;;;4.28;;
7001;SDS011;3541;53.230;10.518;2023-07-09T12:18:57;4.75;;;4.03;;
7001;SDS011;3541;53.230;10.518;2023-07-09T12:21:24;4.43;;;3.97;;
7001;SDS011;3541;53.230;10.518;2023-07-09T12:23:52;5.88;;;4.20;;
7001;SDS011;3541;53.230;10.518;2023-07-09T12:26:20;5.18;;;4.28;;
7001;SDS011;3541;53.230;10.518;2023-07-09T12:28:52;5.57;;;4.20;;
7001;SDS011;3541;53.230;10.518;2023-07-09T12:31:21;5.45;;;4.18;;
7001;SDS011;3541;53.230;10.518;2023-07-09T12:33:53;4.63;;;4.07;;
7001;SDS011;3541;53.230;10.518;2023-07-09T12:36:20;6.70;;;4.22;;
7001;SDS011;3541;53.230;10.518;2023-07-09T12:38:49;4.47;;;4.07;;
7001;SDS011;3541;53.230;10.518;2023-07-09T12:41:19;4.70;;;4.07;;
7001;SDS011;3541;53.230;10.518;2023-07-09T12:43:49;6.18;;;4.28;;
7001;SDS011;3541;53.230;10.518;2023-07-09T12:46:19;5.60;;;4.38;;
7001;SDS011;3541;53.230;10.518;2023-07-09T12:48:47;4.25;;;3.85;;
7001;SDS011;3541;53.230;10.518;2023-07-09T12:51:16;4.57;;;4.18;;
7001;SDS011;3541;53.230;10.518;2023-07-09T12:53:46;8.20;;;4.40;;
7001;SDS011;3541;53.230;10.518;2023-07-09T12:56:13;4.32;;;3.92;;
7001;SDS011;3541;53.230;10.518;2023-07-09T12:58:42;6.82;;;4.50;;
7001;SDS011;3541;53.230;10.518;2023-07-09T13:01:14;5.63;;;4.25;;
7001;SDS011;3541;53.230;10.518;2023-07-09T13:03:52;4.60;;;4.07;;
7001;SDS011;3541;53.230;10.518;2023-07-09T13:06:25;4.82;;;4.28;;
7001;SDS011;3541;53.230;10.518;2023-07-09T13:08:55;4.45;;;4.05;;
7001;SDS011;3541;53.230;10.518;2023-07-09T13:11:23;5.35;;;4.28;;
7001;SDS011;3541;53.230;10.518;2023-07-09T13:13:53;7.13;;;3.92;;
7001;SDS011;3541;53.230;10.518;2023-07-09T13:16:23;5.47;;;4.18;;
7001;SDS011;3541;53.230;10.518;2023-07-09T13:18:49;4.78;;;3.80;;
7001;SDS011;3541;53.230;10.518;2023-07-09T13:21:16;4.85;;;4.35;;
7001;SDS011;3541;53.230;10.518;2023-07-09T13:23:45;6.60;;;4.10;;
7001;SDS011;3541;53.230;10.518;2023-07-09T13:26:12;5.20;;;4.47;;
7001;SDS011;3541;53.230;10.518;2023-07-09T13:28:39;5.10;;;4.60;;
7001;SDS011;3541;53.230;10.518;2023-07-09T13:31:10;4.32;;;3.88;;
7001;SDS011;3541;53.230;10.518;2023-07-09T13:33:41;4.40;;;4.00;;
7001;SDS011;3541;53.230;10.518;2023-07-09T13:36:08;4.90;;;3.90;;
7001;SDS011;3541;53.230;10.518;2023-07-09T13:38:36;5.35;;;4.10;;
7001;SDS011;3541;53.230;10.518;2023-07-09T13:41:09;4.60;;;4.20;;
7001;SDS011;3541;53.230;10.518;2023-07-09T13:43:37;4.32;;;3.92;;
7001;SDS011;3541;53.230;10.518;2023-07-09T13:46:06;5.45;;;4.45;;
7001;SDS011;3541;53.230;10.518;2023-07-09T13:48:35;5.47;;;4.22;;
7001;SDS011;3541;53.230;10.518;2023-07-09T13:51:10;4.88;;;3.95;;
7001;SDS011;3541;53.230;10.518;2023-07-09T13:53:40;4.60;;;3.63;;
7001;SDS011;3541;53.230;10.518;2023-07-09T13:56:07;5.00;;;4.07;;
7001;SDS011;3541;53.230;10.518;2023-07-09T13:58:34;4.30;;;3.83;;
7001;SDS011;3541;53.230;10.518;2023-07-09T14:01:06;5.88;;;4.07;;
7001;SDS011;3541;53.230;10.518;2023-07-09T14:03:37;4.97;;;3.97;;
7001;SDS011;3541;53.230;10.518;2023-07-09T14:06:04;4.20;;;3.80;;
7001;SDS011;3541;53.230;10.518;2023-07-09T14:08:32;7.05;;;4.03;;
7001;SDS011;3541;53.230;10.518;2023-07-09T14:10:58;9.15;;;4.18;;
7001;SDS011;3541;53.230;10.518;2023-07-09T14:13:25;4.30;;;3.90;;
7001;SDS011;3541;53.230;10.518;2023-07-09T14:15:52;6.70;;;4.15;;
7001;SDS011;3541;53.230;10.518;2023-07-09T14:18:19;5.00;;;3.90;;
7001;SDS011;3541;53.230;10.518;2023-07-09T14:20:47;4.50;;;3.78;;
7001;SDS011;3541;53.230;10.518;2023-07-09T14:23:15;6.15;;;3.97;;
7001;SDS011;3541;53.230;10.518;2023-07-09T14:25:45;4.93;;;4.22;;
7001;SDS011;3541;53.230;10.518;2023-07-09T14:28:12;5.32;;;4.10;;
7001;SDS011;3541;53.230;10.518;2023-07-09T14:30:41;5.25;;;4.03;;
7001;SDS011;3541;53.230;10.518;2023-07-09T14:33:11;5.22;;;4.18;;
7001;SDS011;3541;53.230;10.518;2023-07-09T14:35:39;4.93;;;3.80;;
7001;SDS011;3541;53.230;10.518;2023-07-09T14:38:06;5.22;;;4.00;;
7001;SDS011;3541;53.230;10.518;2023-07-09T14:40:41;6.50;;;4.78;;
7001;SDS011;3541;53.230;10.518;2023-07-09T14:43:09;6.95;;;5.65;;
7001;SDS011;3541;53.230;10.518;2023-07-09T14:45:37;4.40;;;4.00;;
7001;SDS011;3541;53.230;10.518;2023-07-09T14:48:08;5.35;;;3.85;;
7001;SDS011;3541;53.230;10.518;2023-07-09T14:50:36;6.22;;;3.97;;
7001;SDS011;3541;53.230;10.518;2023-07-09T14:53:03;4.82;;;3.83;;
7001;SDS011;3541;53.230;10.518;2023-07-09T14:55:31;5.10;;;4.10;;
7001;SDS011;3541;53.230;10.518;2023-07-09T14:57:58;5.80;;;3.75;;
7001;SDS011;3541;53.230;10.518;2023-07-09T15:00:27;4.22;;;3.80;;
7001;SDS011;3541;53.230;10.518;2023-07-09T15:02:53;4.40;;;4.00;;
7001;SDS011;3541;53.230;10.518;2023-07-09T15:05:21;4.97;;;3.80;;
7001;SDS011;3541;53.230;10.518;2023-07-09T15:07:49;5.68;;;4.35;;
7001;SDS011;3541;53.230;10.518;2023-07-09T15:10:18;4.30;;;3.90;;